Time;durP1;ratioP1;P1;durP2;ratioP2;P2;SDS_P1;SDS_P2;PMS_P1;PMS_P2;Temp;Humidity;BMP_temperature;BMP_pressure;BME280_temperature;BME280_humidity;BME280_pressure;Samples;Min_cycle;Max_cycle;Signal;HPM_P1;HPM_P2
2023/06/27 00:04:43;;;;;;;3.57;1.97;;;19.80;65.60;;;;;;10215442;28;20235;-74
2023/06/27 00:09:43;;;;;;;2.67;1.73;;;19.80;65.70;;;;;;10221413;28;20239;-74
2023/06/27 00:14:44;;;;;;;5.33;1.80;;;19.80;65.60;;;;;;10228858;28;20230;-74
2023/06/27 00:19:46;;;;;;;5.40;2.00;;;19.90;65.50;;;;;;10219100;28;20240;-74
2023/06/27 00:24:46;;;;;;;2.50;1.90;;;19.90;65.50;;;;;;10227325;28;20220;-74
2023/06/27 00:29:47;;;;;;;3.90;1.63;;;19.90;65.30;;;;;;10228857;28;20683;-74
2023/06/27 00:34:47;;;;;;;4.33;1.60;;;19.80;65.60;;;;;;10227692;28;20263;-74
2023/06/27 00:39:48;;;;;;;6.87;1.93;;;19.60;65.60;;;;;;10230407;28;20276;-74
2023/06/27 00:44:48;;;;;;;4.67;1.70;;;19.50;66.20;;;;;;10233599;28;20315;-73
2023/06/27 00:49:49;;;;;;;2.93;1.57;;;19.40;67.80;;;;;;10229813;28;20225;-73
2023/06/27 00:54:51;;;;;;;6.10;1.73;;;19.40;67.50;;;;;;10238551;28;20500;-73
2023/06/27 00:59:53;;;;;;;2.07;1.77;;;19.30;68.00;;;;;;10232032;28;20223;-72
2023/06/27 01:04:54;;;;;;;2.57;1.87;;;19.20;68.50;;;;;;10224453;28;20220;-70
2023/06/27 01:10:00;;;;;;;3.87;1.90;;;19.10;69.20;;;;;;10228270;28;20219;-70
2023/06/27 01:15:02;;;;;;;3.40;1.50;;;18.90;70.00;;;;;;10229339;28;20231;-71
2023/06/27 01:20:05;;;;;;;4.93;2.10;;;18.80;70.30;;;;;;10240388;28;20224;-71
2023/06/27 01:25:07;;;;;;;4.87;1.87;;;18.80;70.50;;;;;;10222249;28;20226;-69
2023/06/27 01:30:08;;;;;;;5.30;2.00;;;18.70;70.80;;;;;;10221509;28;20223;-71
2023/06/27 01:35:32;;;;;;;3.87;1.90;;;18.70;70.90;;;;;;10233063;28;20233;-70
2023/06/27 01:40:36;;;;;;;2.80;2.00;;;18.60;71.30;;;;;;10224461;28;20215;-68
2023/06/27 01:45:38;;;;;;;3.87;2.07;;;18.50;72.00;;;;;;10223739;28;20243;-70
2023/06/27 01:50:39;;;;;;;3.47;1.97;;;18.40;72.10;;;;;;10231825;28;20242;-71
2023/06/27 01:55:39;;;;;;;3.03;1.63;;;18.40;72.40;;;;;;10237046;28;20285;-71
2023/06/27 02:00:40;;;;;;;4.37;2.10;;;18.40;72.50;;;;;;10231842;28;20222;-70
2023/06/27 02:05:41;;;;;;;2.27;1.67;;;18.30;72.70;;;;;;10223924;28;20281;-70
2023/06/27 02:10:41;;;;;;;3.90;2.27;;;18.20;72.80;;;;;;10228970;28;20224;-70
2023/06/27 02:15:45;;;;;;;3.03;2.10;;;18.20;73.10;;;;;;10227722;28;20602;-70
2023/06/27 02:20:45;;;;;;;2.37;1.80;;;18.10;73.60;;;;;;10219857;28;20285;-70
2023/06/27 02:25:46;;;;;;;4.13;1.70;;;18.10;74.20;;;;;;10225183;28;20215;-71
2023/06/27 02:30:47;;;;;;;8.20;2.03;;;17.90;74.50;;;;;;10221561;28;20722;-70
2023/06/27 02:35:47;;;;;;;4.33;1.80;;;17.70;75.00;;;;;;10224691;28;20608;-70
2023/06/27 02:40:48;;;;;;;4.47;2.00;;;17.70;75.50;;;;;;10222061;28;20573;-69
2023/06/27 02:45:48;;;;;;;5.67;2.10;;;17.50;76.00;;;;;;10227229;28;20362;-71
2023/06/27 02:50:50;;;;;;;7.60;2.17;;;17.50;76.60;;;;;;10225456;28;20716;-70
2023/06/27 02:55:51;;;;;;;2.60;1.80;;;17.50;76.90;;;;;;10230583;28;20231;-70
2023/06/27 03:00:51;;;;;;;6.60;1.90;;;17.50;76.70;;;;;;10231632;28;20224;-70
2023/06/27 03:05:52;;;;;;;5.23;2.00;;;17.50;76.80;;;;;;10220887;28;20330;-69
2023/06/27 03:10:52;;;;;;;4.13;1.80;;;17.50;76.80;;;;;;10231205;28;20760;-69
2023/06/27 03:15:53;;;;;;;3.93;2.10;;;17.50;77.20;;;;;;10225982;28;20230;-69
2023/06/27 03:20:53;;;;;;;5.93;2.00;;;17.60;77.40;;;;;;10226209;28;20218;-70
2023/06/27 03:25:57;;;;;;;5.97;2.03;;;17.60;77.20;;;;;;10226612;28;20224;-70
2023/06/27 03:31:01;;;;;;;4.53;2.17;;;17.60;76.80;;;;;;10235013;28;20265;-70
2023/06/27 03:36:02;;;;;;;6.83;1.93;;;17.60;77.00;;;;;;10218631;28;20255;-70
2023/06/27 03:41:03;;;;;;;2.90;1.80;;;17.60;76.80;;;;;;10225392;28;20219;-69
2023/06/27 03:46:04;;;;;;;6.10;1.93;;;17.60;77.20;;;;;;10225239;28;20326;-69
2023/06/27 03:51:04;;;;;;;3.47;1.97;;;17.60;77.50;;;;;;10228350;28;20211;-69
2023/06/27 03:56:05;;;;;;;3.57;1.63;;;17.60;77.80;;;;;;10216615;28;20301;-69
2023/06/27 04:01:05;;;;;;;6.47;2.00;;;17.60;77.60;;;;;;10224279;28;20227;-71
2023/06/27 04:06:06;;;;;;;4.60;1.90;;;17.80;77.40;;;;;;10233472;28;20227;-71
2023/06/27 04:11:07;;;;;;;7.00;2.10;;;17.90;77.30;;;;;;10230173;28;20227;-70
2023/06/27 04:16:07;;;;;;;2.80;1.70;;;18.00;76.70;;;;;;10216776;28;20239;-69
2023/06/27 04:21:08;;;;;;;8.73;1.80;;;18.20;76.20;;;;;;10224744;28;20640;-70
2023/06/27 04:26:14;;;;;;;6.73;2.00;;;18.30;76.00;;;;;;10216283;28;20304;-71
2023/06/27 04:31:15;;;;;;;4.80;2.07;;;18.40;75.50;;;;;;10222387;28;20219;-70
2023/06/27 04:36:20;;;;;;;3.37;1.80;;;18.60;75.00;;;;;;10214278;28;20274;-70
2023/06/27 04:41:20;;;;;;;4.67;2.10;;;18.70;75.10;;;;;;10221390;28;20299;-70
2023/06/27 04:46:21;;;;;;;5.87;2.50;;;18.80;74.40;;;;;;10224666;28;20413;-69
2023/06/27 04:51:22;;;;;;;3.80;2.00;;;18.90;74.20;;;;;;10224170;28;20231;-70
2023/06/27 04:56:23;;;;;;;5.77;1.97;;;19.10;73.40;;;;;;10220407;28;20227;-70
2023/06/27 05:01:23;;;;;;;3.97;2.07;;;19.20;73.10;;;;;;10222958;28;20247;-70
2023/06/27 05:06:24;;;;;;;5.17;2.50;;;19.40;72.60;;;;;;10219956;28;20218;-69
2023/06/27 05:11:24;;;;;;;6.90;2.20;;;19.70;71.80;;;;;;10220523;28;20227;-70
2023/06/27 05:16:25;;;;;;;5.17;2.17;;;19.90;71.40;;;;;;10223014;28;20230;-69
2023/06/27 05:21:26;;;;;;;8.20;2.00;;;20.00;70.70;;;;;;10233337;28;20223;-71
2023/06/27 05:26:26;;;;;;;6.23;2.40;;;19.90;70.80;;;;;;10238924;28;20709;-70
2023/06/27 05:31:27;;;;;;;5.03;1.97;;;19.80;72.30;;;;;;10223096;28;20285;-70
2023/06/27 05:36:28;;;;;;;8.63;2.20;;;20.00;70.60;;;;;;10232240;28;20258;-70
2023/06/27 05:41:30;;;;;;;4.70;2.00;;;20.10;70.30;;;;;;10223385;28;20230;-71
2023/06/27 05:46:37;;;;;;;11.70;2.13;;;20.30;69.20;;;;;;10239680;28;20224;-69
2023/06/27 05:51:41;;;;;;;9.37;3.10;;;20.50;68.80;;;;;;10227726;28;20232;-71
2023/06/27 05:56:41;;;;;;;7.27;2.03;;;21.00;67.40;;;;;;10223444;28;20281;-70
2023/06/27 06:01:42;;;;;;;4.57;2.30;;;21.50;66.10;;;;;;10222362;28;20278;-70
2023/06/27 06:06:43;;;;;;;6.40;2.30;;;21.90;64.80;;;;;;10222114;28;20566;-69
2023/06/27 06:11:44;;;;;;;4.30;2.40;;;22.10;63.00;;;;;;10230356;28;20225;-69
2023/06/27 06:16:45;;;;;;;4.23;2.23;;;22.30;63.00;;;;;;10230845;28;20227;-70
2023/06/27 06:21:45;;;;;;;5.80;2.00;;;22.60;62.20;;;;;;10236317;28;20315;-69
2023/06/27 06:26:46;;;;;;;4.23;1.93;;;23.10;60.80;;;;;;10222393;28;20640;-70
2023/06/27 06:31:46;;;;;;;5.87;1.93;;;23.90;58.80;;;;;;10221620;28;20235;-69
2023/06/27 06:36:47;;;;;;;4.13;1.70;;;24.90;56.60;;;;;;10230076;28;20316;-70
2023/06/27 06:41:47;;;;;;;4.43;1.90;;;25.20;55.00;;;;;;10218644;28;20233;-71
2023/06/27 06:46:48;;;;;;;10.80;2.10;;;26.80;52.20;;;;;;10225554;28;20269;-69
2023/06/27 06:51:48;;;;;;;5.87;2.00;;;26.90;51.20;;;;;;10239708;28;20230;-70
2023/06/27 06:56:49;;;;;;;2.37;1.50;;;28.30;49.00;;;;;;10225415;28;20231;-72
2023/06/27 07:01:51;;;;;;;4.73;1.53;;;29.80;46.10;;;;;;10217636;28;20262;-71
2023/06/27 07:06:51;;;;;;;3.00;1.63;;;30.20;44.50;;;;;;10219893;28;20235;-69
2023/06/27 07:11:53;;;;;;;8.17;1.80;;;30.70;43.80;;;;;;10222716;28;20236;-70
2023/06/27 07:16:53;;;;;;;6.53;1.87;;;33.00;40.00;;;;;;10229309;28;20227;-71
2023/06/27 07:21:54;;;;;;;3.77;1.63;;;34.50;37.90;;;;;;10227443;28;20726;-71
2023/06/27 07:26:55;;;;;;;12.40;3.10;;;35.40;36.70;;;;;;10216251;28;20236;-70
2023/06/27 07:31:55;;;;;;;1.87;1.43;;;37.10;32.90;;;;;;10222334;28;20702;-71
2023/06/27 07:36:56;;;;;;;4.67;1.60;;;37.30;31.80;;;;;;10217664;28;20220;-70
2023/06/27 07:41:56;;;;;;;3.87;1.70;;;37.20;32.40;;;;;;10229022;28;20219;-70
2023/06/27 07:46:57;;;;;;;2.80;1.50;;;38.20;31.50;;;;;;10227431;28;20212;-71
2023/06/27 07:51:57;;;;;;;4.83;1.60;;;36.60;32.30;;;;;;10223497;28;20318;-70
2023/06/27 07:56:58;;;;;;;7.57;2.00;;;36.80;32.90;;;;;;10216806;28;20231;-69
2023/06/27 08:01:59;;;;;;;3.13;1.37;;;36.30;32.80;;;;;;10222446;28;20230;-72
2023/06/27 08:06:59;;;;;;;9.03;2.00;;;34.60;34.50;;;;;;10216534;28;20235;-70
2023/06/27 08:12:00;;;;;;;15.63;2.10;;;34.30;35.40;;;;;;10235225;28;20830;-69
2023/06/27 08:17:00;;;;;;;14.53;1.80;;;35.20;35.00;;;;;;10229940;28;20588;-71
2023/06/27 08:22:01;;;;;;;3.67;1.50;;;37.30;31.80;;;;;;10222188;28;20236;-71
2023/06/27 08:27:02;;;;;;;6.13;1.90;;;38.60;30.40;;;;;;10223307;28;20284;-71
2023/06/27 08:32:03;;;;;;;2.80;1.50;;;36.70;31.60;;;;;;10216104;28;20243;-71
2023/06/27 08:37:03;;;;;;;4.30;2.20;;;34.30;34.50;;;;;;10221971;28;20253;-71
2023/06/27 08:42:05;;;;;;;4.53;1.90;;;32.60;36.60;;;;;;10222585;28;20606;-70
2023/06/27 08:47:08;;;;;;;4.10;1.70;;;31.40;39.40;;;;;;10225896;28;20762;-71
2023/06/27 08:52:13;;;;;;;5.00;1.70;;;32.40;39.40;;;;;;10230187;28;20789;-69
2023/06/27 08:57:14;;;;;;;29.87;4.23;;;36.00;34.30;;;;;;10222695;28;20232;-70
2023/06/27 09:02:15;;;;;;;3.40;1.60;;;38.80;30.50;;;;;;10229205;28;20227;-71
2023/06/27 09:07:16;;;;;;;3.83;1.83;;;40.00;29.40;;;;;;10222506;28;20224;-70
2023/06/27 09:12:16;;;;;;;4.63;1.60;;;41.20;28.30;;;;;;10228257;28;20232;-72
2023/06/27 09:17:17;;;;;;;4.00;1.70;;;41.40;27.90;;;;;;10224781;28;20223;-71
2023/06/27 09:22:19;;;;;;;4.57;1.87;;;41.10;27.70;;;;;;10241854;28;20318;-70
2023/06/27 09:27:30;;;;;;;3.57;1.80;;;39.70;28.70;;;;;;10222567;28;20315;-70
2023/06/27 09:32:31;;;;;;;5.67;1.90;;;39.70;29.00;;;;;;10233808;28;20294;-70
2023/06/27 09:37:32;;;;;;;2.70;1.73;;;40.30;28.30;;;;;;10223445;28;20293;-70
2023/06/27 09:42:33;;;;;;;6.40;2.17;;;40.50;27.70;;;;;;10225550;28;20228;-70
2023/06/27 09:47:35;;;;;;;18.87;3.20;;;40.50;28.20;;;;;;10232418;28;20227;-71
2023/06/27 09:52:36;;;;;;;9.17;2.27;;;40.60;27.70;;;;;;10232370;28;20893;-70
2023/06/27 09:57:42;;;;;;;2.77;1.43;;;39.70;28.60;;;;;;10223727;28;20231;-71
2023/06/27 10:02:50;;;;;;;4.97;1.70;;;38.80;28.70;;;;;;10223631;28;20220;-70
2023/06/27 10:07:52;;;;;;;10.87;2.20;;;37.60;29.80;;;;;;10225343;28;20235;-69
2023/06/27 10:12:54;;;;;;;13.43;2.80;;;37.80;29.90;;;;;;10221813;28;20706;-71
2023/06/27 10:17:55;;;;;;;13.00;2.23;;;39.50;28.60;;;;;;10229824;28;20227;-70
2023/06/27 10:22:57;;;;;;;6.40;2.30;;;39.10;28.90;;;;;;10225503;28;20230;-70
2023/06/27 10:28:07;;;;;;;7.23;1.70;;;39.70;28.10;;;;;;10227870;28;20239;-70
2023/06/27 10:33:18;;;;;;;8.80;1.60;;;40.30;27.50;;;;;;10228315;28;20243;-71
2023/06/27 10:38:19;;;;;;;3.07;1.50;;;40.60;26.80;;;;;;10226663;28;20220;-70
2023/06/27 10:43:34;;;;;;;5.53;1.67;;;40.40;27.10;;;;;;10234396;28;20589;-71
2023/06/27 10:48:59;;;;;;;13.97;2.40;;;40.00;27.20;;;;;;10218247;28;20698;-71
2023/06/27 10:54:08;;;;;;;11.37;2.10;;;38.90;28.20;;;;;;10221577;28;20228;-71
2023/06/27 10:59:18;;;;;;;6.47;1.70;;;37.30;29.20;;;;;;10209885;28;20228;-70
2023/06/27 11:04:40;;;;;;;15.60;2.33;;;37.10;29.70;;;;;;10219178;28;20742;-70
2023/06/27 11:09:54;;;;;;;22.33;3.37;;;36.80;30.10;;;;;;10220683;28;20228;-70
2023/06/27 11:14:56;;;;;;;6.40;1.73;;;36.40;30.70;;;;;;10241634;28;20227;-71
2023/06/27 11:19:58;;;;;;;15.20;2.30;;;35.90;30.40;;;;;;10225482;28;20319;-71
2023/06/27 11:24:59;;;;;;;3.37;1.70;;;34.90;32.00;;;;;;10223473;28;20768;-70
2023/06/27 11:29:59;;;;;;;7.37;2.03;;;34.70;32.10;;;;;;10218120;28;20369;-70
2023/06/27 11:35:00;;;;;;;32.97;3.33;;;34.10;32.60;;;;;;10223106;28;20238;-70
2023/06/27 11:40:07;;;;;;;7.83;2.10;;;33.90;33.10;;;;;;10224289;28;20691;-70
2023/06/27 11:45:13;;;;;;;5.00;1.70;;;33.10;34.10;;;;;;10226053;28;20375;-71
2023/06/27 11:50:15;;;;;;;32.53;3.67;;;32.60;34.40;;;;;;10217700;28;20184;-70
2023/06/27 11:55:16;;;;;;;4.33;1.80;;;32.20;34.20;;;;;;10223702;28;20227;-71
2023/06/27 12:00:22;;;;;;;2.80;1.50;;;32.00;33.70;;;;;;10224285;28;20564;-70
2023/06/27 12:05:25;;;;;;;2.40;1.30;;;31.70;35.60;;;;;;10222744;28;20184;-70
2023/06/27 12:10:25;;;;;;;3.33;1.40;;;31.80;35.50;;;;;;10218182;28;20200;-71
2023/06/27 12:15:26;;;;;;;12.73;2.87;;;31.90;35.60;;;;;;10221472;28;20246;-71
2023/06/27 12:20:39;;;;;;;3.80;1.60;;;32.00;34.50;;;;;;10233815;28;20224;-71
2023/06/27 12:25:40;;;;;;;9.50;1.73;;;31.90;34.40;;;;;;10220107;28;20220;-69
2023/06/27 12:30:41;;;;;;;6.47;1.80;;;31.40;33.80;;;;;;10223278;28;20700;-72
2023/06/27 12:35:42;;;;;;;17.60;2.23;;;31.50;34.10;;;;;;10229330;28;20636;-71
2023/06/27 12:40:43;;;;;;;17.30;2.33;;;31.50;34.10;;;;;;10218441;28;20289;-70
2023/06/27 12:46:00;;;;;;;10.27;1.60;;;31.30;34.60;;;;;;10219030;28;20234;-69
2023/06/27 12:51:02;;;;;;;4.57;1.50;;;30.80;35.10;;;;;;10226512;28;20227;-70
2023/06/27 12:56:03;;;;;;;4.50;1.87;;;30.50;35.40;;;;;;10215188;28;20235;-70
2023/06/27 13:01:04;;;;;;;4.33;1.83;;;30.30;35.20;;;;;;10228528;28;20288;-70
2023/06/27 13:06:05;;;;;;;6.47;1.97;;;30.10;35.40;;;;;;10217262;28;20266;-71
2023/06/27 13:11:05;;;;;;;4.43;1.80;;;29.90;35.20;;;;;;10222240;28;20289;-71
2023/06/27 13:16:06;;;;;;;4.63;1.77;;;30.00;34.70;;;;;;10214474;28;20247;-72
2023/06/27 13:21:07;;;;;;;6.07;1.73;;;30.20;34.40;;;;;;10238173;28;20366;-71
2023/06/27 13:26:08;;;;;;;3.87;1.60;;;30.50;34.50;;;;;;10214505;28;20761;-70
2023/06/27 13:31:09;;;;;;;5.53;1.70;;;30.30;34.70;;;;;;10222053;28;20230;-69
2023/06/27 13:36:10;;;;;;;4.37;1.40;;;30.30;34.60;;;;;;10218536;28;20256;-70
2023/06/27 13:41:11;;;;;;;7.07;1.93;;;30.00;35.60;;;;;;10228387;28;20731;-71
2023/06/27 13:46:11;;;;;;;6.07;1.70;;;29.90;35.60;;;;;;10231887;28;20327;-69
2023/06/27 13:51:12;;;;;;;3.23;1.50;;;29.50;35.20;;;;;;10220815;28;20242;-70
2023/06/27 13:56:13;;;;;;;2.70;1.50;;;29.30;36.20;;;;;;10227194;28;20239;-70
2023/06/27 14:01:14;;;;;;;2.07;1.53;;;29.40;36.10;;;;;;10220788;28;20593;-74
2023/06/27 14:06:17;;;;;;;3.17;1.60;;;29.50;36.10;;;;;;10226853;28;20228;-74
2023/06/27 14:11:18;;;;;;;17.20;2.27;;;29.50;36.40;;;;;;10220155;28;20664;-74
2023/06/27 14:16:19;;;;;;;6.90;2.03;;;29.50;36.70;;;;;;10232306;28;20281;-73
2023/06/27 14:21:21;;;;;;;3.93;1.70;;;29.40;36.80;;;;;;10226898;28;20678;-73
2023/06/27 14:26:22;;;;;;;10.57;1.90;;;29.00;37.20;;;;;;10229749;28;20315;-74
2023/06/27 14:31:24;;;;;;;4.23;1.77;;;28.40;38.50;;;;;;10232639;28;20235;-74
2023/06/27 14:36:28;;;;;;;8.93;1.73;;;28.50;38.80;;;;;;10227827;28;20234;-74
2023/06/27 14:41:28;;;;;;;8.33;1.90;;;28.80;37.80;;;;;;10223700;28;20679;-73
2023/06/27 14:46:29;;;;;;;13.43;3.37;;;28.60;38.00;;;;;;10219845;28;20224;-74
2023/06/27 14:51:29;;;;;;;17.23;2.30;;;28.40;38.80;;;;;;10223867;28;20223;-74
2023/06/27 14:56:30;;;;;;;3.47;1.50;;;28.10;38.70;;;;;;10224566;28;20245;-73
2023/06/27 15:01:31;;;;;;;5.07;1.93;;;28.00;39.40;;;;;;10233584;28;20750;-73
2023/06/27 15:06:32;;;;;;;4.00;1.90;;;27.90;39.40;;;;;;10223251;28;20235;-74
2023/06/27 15:11:32;;;;;;;7.00;2.00;;;27.70;40.30;;;;;;10220868;28;20231;-74
2023/06/27 15:16:33;;;;;;;6.87;1.70;;;27.50;41.20;;;;;;10244553;28;20282;-74
2023/06/27 15:21:33;;;;;;;4.57;1.90;;;27.60;41.60;;;;;;10217608;28;20232;-72
2023/06/27 15:26:37;;;;;;;4.83;1.57;;;27.60;41.50;;;;;;10219000;28;20319;-74
2023/06/27 15:31:38;;;;;;;4.20;1.73;;;27.70;41.60;;;;;;10228203;28;20661;-74
2023/06/27 15:36:38;;;;;;;5.27;2.00;;;27.70;41.70;;;;;;10225614;28;20228;-73
2023/06/27 15:41:39;;;;;;;5.50;1.83;;;27.50;42.10;;;;;;10219994;28;20223;-73
2023/06/27 15:46:39;;;;;;;3.47;1.90;;;27.20;42.50;;;;;;10226968;28;20280;-73
2023/06/27 15:51:42;;;;;;;4.20;1.87;;;27.10;42.90;;;;;;10219911;28;20227;-73
2023/06/27 15:56:43;;;;;;;3.10;1.77;;;26.90;43.40;;;;;;10219727;28;20231;-74
2023/06/27 16:01:44;;;;;;;7.53;2.10;;;26.80;43.30;;;;;;10219443;28;20219;-73
2023/06/27 16:06:44;;;;;;;4.83;2.27;;;26.70;43.80;;;;;;10223567;28;20223;-75
2023/06/27 16:11:46;;;;;;;2.80;1.90;;;26.60;43.90;;;;;;10220101;28;20764;-74
2023/06/27 16:16:46;;;;;;;4.07;1.90;;;26.50;43.90;;;;;;10218055;28;20303;-74
2023/06/27 16:21:47;;;;;;;7.97;2.60;;;26.30;44.40;;;;;;10220932;28;20250;-74
2023/06/27 16:26:47;;;;;;;6.50;2.10;;;26.30;44.60;;;;;;10232357;28;20254;-74
2023/06/27 16:31:51;;;;;;;4.70;1.90;;;26.30;44.60;;;;;;10224967;28;20223;-74
2023/06/27 16:36:51;;;;;;;5.20;2.20;;;26.30;44.90;;;;;;10220400;28;20223;-74
2023/06/27 16:41:52;;;;;;;11.13;3.30;;;26.30;44.80;;;;;;10222767;28;20709;-73
2023/06/27 16:46:53;;;;;;;4.50;2.10;;;26.30;45.10;;;;;;10222721;28;20219;-73
2023/06/27 16:51:54;;;;;;;7.43;3.80;;;26.20;45.20;;;;;;10225360;28;20640;-73
2023/06/27 16:56:55;;;;;;;5.67;2.20;;;26.20;45.20;;;;;;10215330;28;20237;-74
2023/06/27 17:01:55;;;;;;;2.37;1.60;;;26.40;44.70;;;;;;10221694;28;20234;-74
2023/06/27 17:06:56;;;;;;;7.90;2.03;;;26.40;44.80;;;;;;10220681;28;20226;-74
2023/06/27 17:11:57;;;;;;;2.67;1.53;;;26.50;44.60;;;;;;10222928;28;20231;-74
2023/06/27 17:16:57;;;;;;;7.87;1.90;;;26.40;44.50;;;;;;10230899;28;20255;-73
2023/06/27 17:21:58;;;;;;;6.00;3.40;;;26.30;44.80;;;;;;10227777;28;20797;-74
2023/06/27 17:26:58;;;;;;;7.20;3.80;;;26.10;45.10;;;;;;10238791;28;20227;-74
2023/06/27 17:31:59;;;;;;;8.87;3.20;;;26.00;45.60;;;;;;10222716;28;20224;-74
2023/06/27 17:36:59;;;;;;;5.13;2.27;;;25.80;45.80;;;;;;10231085;28;20219;-74
2023/06/27 17:42:01;;;;;;;4.83;2.20;;;25.80;45.80;;;;;;10228482;28;20226;-74
2023/06/27 17:47:01;;;;;;;8.83;2.10;;;25.80;46.50;;;;;;10227895;28;20607;-74
2023/06/27 17:52:03;;;;;;;5.47;1.90;;;25.50;45.90;;;;;;10226698;28;20324;-74
2023/06/27 17:57:07;;;;;;;4.30;2.43;;;25.50;46.20;;;;;;10219546;28;20314;-74
2023/06/27 18:02:07;;;;;;;6.33;2.10;;;25.40;46.70;;;;;;10220688;28;20304;-74
2023/06/27 18:07:08;;;;;;;4.20;2.27;;;25.20;46.90;;;;;;10227652;28;20674;-75
2023/06/27 18:12:09;;;;;;;8.27;2.20;;;25.10;47.30;;;;;;10220572;28;20256;-74
2023/06/27 18:17:10;;;;;;;6.03;1.87;;;25.10;47.30;;;;;;10231231;28;20663;-74
2023/06/27 18:22:10;;;;;;;5.23;1.97;;;25.00;47.50;;;;;;10226639;28;20290;-74
2023/06/27 18:27:11;;;;;;;5.80;2.10;;;25.00;47.60;;;;;;10220014;28;20234;-74
2023/06/27 18:32:11;;;;;;;5.10;2.30;;;24.80;47.80;;;;;;10234251;28;20615;-74
2023/06/27 18:37:12;;;;;;;6.40;1.83;;;24.80;48.30;;;;;;10225233;28;20235;-75
2023/06/27 18:42:12;;;;;;;3.50;1.87;;;24.60;48.30;;;;;;10227014;28;20738;-74
2023/06/27 18:47:13;;;;;;;3.33;1.67;;;24.50;48.50;;;;;;10226968;28;20702;-74
2023/06/27 18:52:14;;;;;;;4.37;2.00;;;24.50;49.00;;;;;;10219580;28;20224;-72
2023/06/27 18:57:18;;;;;;;4.67;1.63;;;24.40;49.10;;;;;;10238931;28;20236;-73
2023/06/27 19:02:19;;;;;;;2.80;1.93;;;24.20;49.40;;;;;;10225127;28;20310;-75
2023/06/27 19:07:19;;;;;;;6.50;2.43;;;24.10;49.90;;;;;;10225820;28;20289;-73
2023/06/27 19:12:20;;;;;;;6.40;1.87;;;24.00;49.50;;;;;;10223714;28;20752;-74
2023/06/27 19:17:20;;;;;;;4.93;2.20;;;23.80;50.70;;;;;;10220240;28;20220;-74
2023/06/27 19:22:21;;;;;;;6.10;2.00;;;23.70;51.80;;;;;;10228230;28;20235;-74
2023/06/27 19:27:25;;;;;;;6.50;1.93;;;23.50;52.50;;;;;;10235170;28;20727;-74
2023/06/27 19:32:25;;;;;;;6.00;1.80;;;23.50;52.90;;;;;;10223420;28;20226;-72
2023/06/27 19:37:26;;;;;;;4.20;1.93;;;23.30;53.80;;;;;;10225741;28;20219;-74
2023/06/27 19:42:26;;;;;;;10.53;2.20;;;23.20;54.40;;;;;;10226277;28;20228;-74
2023/06/27 19:47:28;;;;;;;4.57;1.97;;;23.10;54.70;;;;;;10223306;28;20590;-73
2023/06/27 19:52:28;;;;;;;4.33;2.17;;;23.00;55.00;;;;;;10226682;28;20249;-75
2023/06/27 19:57:29;;;;;;;7.47;2.07;;;22.90;55.30;;;;;;10230129;28;20223;-74
2023/06/27 20:02:29;;;;;;;8.20;2.30;;;22.80;55.40;;;;;;10220626;28;20221;-75
2023/06/27 20:07:30;;;;;;;7.37;2.17;;;22.80;55.80;;;;;;10222832;28;20219;-74
2023/06/27 20:12:34;;;;;;;6.73;1.80;;;22.70;55.90;;;;;;10235850;28;20310;-73
2023/06/27 20:17:34;;;;;;;6.40;2.40;;;22.60;56.00;;;;;;10228065;28;20266;-74
2023/06/27 20:22:35;;;;;;;7.10;2.77;;;22.60;56.20;;;;;;10219938;28;20219;-74
2023/06/27 20:27:36;;;;;;;3.83;1.90;;;22.50;56.40;;;;;;10227500;28;20228;-74
2023/06/27 20:32:36;;;;;;;9.60;2.30;;;22.50;56.50;;;;;;10216720;28;20246;-74
2023/06/27 20:37:37;;;;;;;6.20;2.30;;;22.40;56.60;;;;;;10219723;28;20243;-73
2023/06/27 20:42:38;;;;;;;2.73;1.80;;;22.40;56.80;;;;;;10227868;28;20590;-73
2023/06/27 20:47:38;;;;;;;6.13;2.00;;;22.40;56.90;;;;;;10230385;28;20216;-73
2023/06/27 20:52:39;;;;;;;6.67;1.90;;;22.30;57.00;;;;;;10226760;28;20284;-74
2023/06/27 20:57:39;;;;;;;8.07;2.20;;;22.30;57.20;;;;;;10226670;28;20251;-74
2023/06/27 21:02:40;;;;;;;5.77;1.80;;;22.30;57.40;;;;;;10225346;28;20655;-74
2023/06/27 21:07:40;;;;;;;5.13;1.97;;;22.30;58.50;;;;;;10235178;28;20223;-73
2023/06/27 21:12:41;;;;;;;5.27;1.90;;;22.30;57.80;;;;;;10232876;28;20255;-74
2023/06/27 21:17:42;;;;;;;4.50;1.73;;;22.20;57.80;;;;;;10226428;28;20216;-74
2023/06/27 21:22:42;;;;;;;7.77;1.90;;;22.20;58.00;;;;;;10233235;28;20223;-74
2023/06/27 21:27:43;;;;;;;5.17;1.90;;;22.10;58.00;;;;;;10245480;28;20234;-75
2023/06/27 21:32:43;;;;;;;5.30;2.20;;;22.10;58.20;;;;;;10241457;28;20706;-74
2023/06/27 21:37:44;;;;;;;5.90;1.63;;;22.10;58.40;;;;;;10233230;28;20276;-74
2023/06/27 21:42:45;;;;;;;5.97;1.97;;;22.10;58.30;;;;;;10225604;28;20227;-74
2023/06/27 21:47:45;;;;;;;6.73;1.60;;;22.10;58.20;;;;;;10231466;28;20228;-74
2023/06/27 21:52:46;;;;;;;6.43;1.47;;;22.10;58.30;;;;;;10224988;28;20223;-74
2023/06/27 21:57:47;;;;;;;4.17;2.17;;;22.00;58.20;;;;;;10220727;28;20232;-74
2023/06/27 22:02:49;;;;;;;6.57;2.10;;;22.10;58.30;;;;;;10224190;28;20311;-74
2023/06/27 22:07:50;;;;;;;4.90;1.60;;;22.00;58.30;;;;;;10225897;28;20702;-74
2023/06/27 22:12:51;;;;;;;6.43;1.80;;;22.00;58.40;;;;;;10227919;28;20223;-73
2023/06/27 22:17:51;;;;;;;3.27;2.00;;;21.90;58.70;;;;;;10231712;28;20208;-74
2023/06/27 22:22:52;;;;;;;3.27;1.37;;;21.90;58.80;;;;;;10220370;28;20228;-75
2023/06/27 22:27:52;;;;;;;2.87;1.70;;;21.90;59.00;;;;;;10225420;28;20231;-73
2023/06/27 22:32:53;;;;;;;5.80;1.80;;;21.80;59.20;;;;;;10222037;28;20740;-74
2023/06/27 22:37:56;;;;;;;4.60;2.03;;;21.80;59.20;;;;;;10225422;28;20706;-74
2023/06/27 22:42:59;;;;;;;2.53;1.83;;;21.80;59.40;;;;;;10221781;28;20221;-74
2023/06/27 22:48:00;;;;;;;5.07;1.67;;;21.70;59.70;;;;;;10225686;28;20251;-73
2023/06/27 22:53:00;;;;;;;2.80;1.47;;;21.60;59.70;;;;;;10225939;28;20701;-74
2023/06/27 22:58:01;;;;;;;3.17;1.53;;;21.60;59.80;;;;;;10227003;28;20220;-74
2023/06/27 23:03:01;;;;;;;4.53;1.93;;;21.50;59.80;;;;;;10232568;28;20711;-75
2023/06/27 23:08:02;;;;;;;7.43;1.70;;;21.50;60.00;;;;;;10232409;28;20219;-73
2023/06/27 23:13:02;;;;;;;4.93;1.97;;;21.50;60.10;;;;;;10220176;28;20235;-74
2023/06/27 23:18:03;;;;;;;3.13;1.70;;;21.40;60.00;;;;;;10234609;28;20220;-74
2023/06/27 23:23:08;;;;;;;4.37;1.77;;;21.40;60.40;;;;;;10233756;28;20238;-73
2023/06/27 23:28:16;;;;;;;4.80;1.77;;;21.30;60.80;;;;;;10234495;28;20641;-73
2023/06/27 23:33:19;;;;;;;4.87;1.83;;;21.20;61.30;;;;;;10224910;28;20375;-74
2023/06/27 23:38:22;;;;;;;5.30;1.80;;;21.20;62.00;;;;;;10219033;28;20224;-73
2023/06/27 23:43:23;;;;;;;4.77;1.77;;;21.10;62.40;;;;;;10230742;28;20229;-74
2023/06/27 23:48:23;;;;;;;5.47;1.60;;;21.10;63.00;;;;;;10217772;28;20676;-74
2023/06/27 23:53:24;;;;;;;9.17;2.00;;;21.00;63.40;;;;;;10219322;28;20224;-74
2023/06/27 23:58:24;;;;;;;3.80;1.60;;;21.00;63.90;;;;;;10223325;28;20254;-74
